Latest Weather Observations for Lake Macquarie - Cooranbong

IDN60801

Issued at 11:32 am EST Saturday 4 July 2015 (issued every 30 minutes, with the page automatically refreshed every 10 minutes)

About weather observations | Map of weather stations | Latest weather observations for NSW | Other Formats
Station Details ID: 061412 Name: LAKE MACQUARIE AWS Lat: -33.09 Lon: 151.46 Height: 6.0 m
Data from the previous 72 hours. | See also: Recent months at Lake Macquarie - Cooranbong
Date/Time
EST
Temp
°C
App
Temp
°C
Dew
Point
Rel
Hum
%
Delta-T
°C
Wind Press
QNH
hPa
Press
MSL
hPa
Rain
since 9 am
mm
Dir
 
Spd
km/h
Gust
km/h
Spd
kts
Gust
kts
04/11:30am 15.9 13.3 4.3 46 5.4 WNW 7 17 4 9 1021.6 1021.6 0.0
04/11:00am 15.0 11.7 4.4 49 4.9 NW 11 20 6 11 1022.1 1022.1 0.0
04/10:30am 14.6 12.3 5.9 56 4.2 WNW 7 13 4 7 1022.5 1022.5 0.0
04/10:00am 11.1 10.3 8.0 81 1.5 SE 2 6 1 3 1022.7 1022.7 0.0
04/09:00am 6.5 5.6 6.1 97 0.2 CALM 0 0 0 0 1022.9 1022.9 0.0
04/08:30am 3.6 2.1 3.2 97 0.2 CALM 0 0 0 0 1022.8 1022.8 0.0
04/08:00am 2.3 0.6 1.7 96 0.2 CALM 0 0 0 0 1022.9 1022.9 0.0
04/07:30am 0.8 -1.2 0.1 95 0.3 CALM 0 0 0 0 1023.0 1023.0 0.0
04/07:00am 0.3 -1.7 -0.4 95 0.2 CALM 0 0 0 0 1023.2 1023.2 0.0
04/06:30am 0.8 -1.2 0.1 95 0.3 CALM 0 0 0 0 1023.3 1023.3 0.0
04/06:00am 1.0 -0.9 0.4 96 0.2 CALM 0 0 0 0 1023.2 1023.2 0.0
04/05:30am 1.2 -0.7 0.6 96 0.2 CALM 0 0 0 0 1022.8 1022.8 0.0
04/05:00am 1.0 -1.3 0.3 95 0.3 N 2 6 1 3 1023.1 1023.1 0.0
04/04:30am 1.0 -0.9 0.3 95 0.3 CALM 0 0 0 0 1023.2 1023.2 0.0
04/04:00am 1.3 -0.6 0.6 95 0.3 CALM 0 0 0 0 1023.6 1023.6 0.0
04/03:30am 1.5 -0.4 0.8 95 0.3 CALM 0 0 0 0 1023.7 1023.7 0.0
04/03:00am 1.8 0.0 1.1 95 0.3 CALM 0 0 0 0 1023.8 1023.8 0.0
04/02:30am 2.0 0.2 1.3 95 0.3 CALM 0 0 0 0 1023.9 1023.9 0.0
04/02:00am 2.2 0.4 1.5 95 0.3 CALM 0 0 0 0 1024.1 1024.1 0.0
04/01:30am 2.5 0.8 1.8 95 0.3 CALM 0 0 0 0 1024.6 1024.6 0.0
04/01:00am 2.8 1.1 2.1 95 0.3 CALM 0 0 0 0 1024.6 1024.6 0.0
04/12:30am 2.9 1.3 2.2 95 0.3 CALM 0 0 0 0 1024.9 1024.9 0.0
04/12:00am 3.2 1.6 2.5 95 0.3 CALM 0 0 0 0 1025.3 1025.3 0.0
 
Date/Time
EST
Temp
°C
App
Temp
°C
Dew
Point
Rel
Hum
%
Delta-T
°C
Wind Press
QNH
hPa
Press
MSL
hPa
Rain
since 9 am
mm
Dir
 
Spd
km/h
Gust
km/h
Spd
kts
Gust
kts
03/11:30pm 3.6 2.0 2.7 94 0.4 CALM 0 0 0 0 1025.4 1025.4 0.0
03/11:00pm 3.9 2.4 3.0 94 0.4 CALM 0 0 0 0 1025.6 1025.6 0.0
03/10:30pm 4.1 2.6 3.1 93 0.4 CALM 0 0 0 0 1025.7 1025.7 0.0
03/10:00pm 4.4 3.0 3.5 94 0.4 CALM 0 0 0 0 1025.8 1025.8 0.0
03/09:30pm 4.7 3.3 3.7 93 0.4 CALM 0 0 0 0 1025.9 1025.9 0.0
03/09:00pm 5.2 3.9 4.2 93 0.4 CALM 0 0 0 0 1025.9 1025.9 0.0
03/08:30pm 5.6 4.4 4.4 92 0.5 CALM 0 0 0 0 1026.0 1026.0 0.0
03/08:00pm 5.7 4.4 4.2 90 0.6 CALM 0 0 0 0 1026.0 1026.0 0.0
03/07:30pm 6.5 5.4 5.3 92 0.5 CALM 0 0 0 0 1026.0 1026.0 0.0
03/07:00pm 7.1 6.2 5.9 92 0.5 CALM 0 0 0 0 1026.0 1026.0 0.0
03/06:30pm 7.4 6.5 6.0 91 0.6 CALM 0 0 0 0 1025.8 1025.8 0.0
03/06:00pm 8.0 7.1 6.0 87 0.9 CALM 0 0 0 0 1025.6 1025.6 0.0
03/05:30pm 9.3 8.5 6.6 83 1.3 CALM 0 0 0 0 1025.4 1025.4 0.0
03/05:00pm 11.1 10.3 6.5 73 2.2 CALM 0 2 0 1 1025.1 1025.1 0.0
03/04:30pm 13.2 12.3 5.9 61 3.4 CALM 0 0 0 0 1024.9 1024.9 0.0
03/04:00pm 14.6 12.6 4.3 50 4.7 WSW 4 7 2 4 1025.0 1025.0 0.0
03/03:30pm 15.1 13.2 4.8 50 4.8 SSW 4 7 2 4 1024.8 1024.8 0.0
03/03:00pm 15.3 12.8 5.0 50 4.8 WSW 7 11 4 6 1024.7 1024.7 0.0
03/02:30pm 15.2 12.9 4.6 49 4.9 WSW 6 9 3 5 1024.5 1024.5 0.0
03/02:00pm 15.3 13.1 5.2 51 4.7 SSW 6 11 3 6 1024.6 1024.6 0.0
03/01:30pm 14.9 12.4 4.6 50 4.8 SSW 7 20 4 11 1025.0 1025.0 0.0
03/01:00pm 15.1 12.7 5.3 52 4.6 SSW 7 15 4 8 1025.2 1025.2 0.0
03/12:30pm 14.8 12.4 5.1 52 4.6 SW 7 17 4 9 1025.5 1025.5 0.0
03/12:00pm 14.3 11.4 4.6 52 4.5 S 9 17 5 9 1025.7 1025.7 0.0
03/11:30am 14.2 11.8 4.5 52 4.5 WSW 6 15 3 8 1026.2 1026.2 0.0
03/11:00am 13.3 9.9 3.9 53 4.2 SW 11 22 6 12 1026.5 1026.5 0.0
03/10:30am 13.3 10.5 3.4 51 4.4 WSW 7 17 4 9 1026.5 1026.5 0.0
03/10:00am 12.2 8.9 2.6 52 4.2 SW 9 24 5 13 1026.4 1026.4 0.0
03/09:30am 11.6 8.3 2.4 53 4.0 WSW 9 20 5 11 1026.3 1026.3 0.0
03/09:00am 10.9 8.0 1.7 53 3.9 SW 6 17 3 9 1026.1 1026.1 0.0
03/08:30am 9.9 6.7 1.0 54 3.7 WSW 7 20 4 11 1025.7 1025.7 0.0
03/08:00am 8.9 5.6 0.4 55 3.4 WSW 7 13 4 7 1025.6 1025.6 0.0
03/07:30am 7.7 5.3 -0.3 57 3.1 SW 2 13 1 7 1025.7 1025.7 0.0
03/07:00am 7.8 5.0 -0.7 55 3.3 W 4 11 2 6 1025.7 1025.7 0.0
03/06:30am 7.7 4.4 -1.0 54 3.3 SW 6 11 3 6 1025.1 1025.1 0.0
03/06:00am 8.2 4.9 -1.1 52 3.5 SW 6 13 3 7 1024.7 1024.7 0.0
03/05:30am 8.0 4.8 -0.7 54 3.4 WSW 6 17 3 9 1024.4 1024.4 0.0
03/05:00am 8.2 5.0 -0.8 53 3.5 WSW 6 13 3 7 1024.2 1024.2 0.0
03/04:30am 8.5 5.3 -0.8 52 3.6 WSW 6 11 3 6 1024.1 1024.1 0.0
03/04:00am 8.7 5.4 -0.9 51 3.7 WSW 6 17 3 9 1024.1 1024.1 0.0
03/03:30am 8.6 5.2 -0.9 51 3.7 WSW 7 17 4 9 1023.8 1023.8 0.0
03/03:00am 8.6 5.2 -0.4 53 3.5 WSW 7 13 4 7 1023.9 1023.9 0.0
03/02:30am 8.4 5.3 -0.1 55 3.3 WSW 6 9 3 5 1024.0 1024.0 0.0
03/02:00am 8.6 5.4 -0.2 54 3.4 WSW 6 9 3 5 1024.1 1024.1 0.0
03/01:30am 8.9 5.8 0.1 54 3.5 WSW 6 11 3 6 1024.0 1024.0 0.0
03/01:00am 9.1 6.0 0.0 53 3.6 WSW 6 9 3 5 1023.9 1023.9 0.0
03/12:30am 9.3 6.6 0.5 54 3.5 WSW 4 9 2 5 1023.9 1023.9 0.0
03/12:00am 9.7 6.5 0.9 54 3.6 WSW 7 13 4 7 1024.0 1024.0 0.0
 
Date/Time
EST
Temp
°C
App
Temp
°C
Dew
Point
Rel
Hum
%
Delta-T
°C
Wind Press
QNH
hPa
Press
MSL
hPa
Rain
since 9 am
mm
Dir
 
Spd
km/h
Gust
km/h
Spd
kts
Gust
kts
02/11:30pm 10.1 7.1 1.0 53 3.7 WSW 6 13 3 7 1024.0 1024.0 0.0
02/11:00pm 10.6 7.7 1.2 52 3.9 WSW 6 11 3 6 1023.9 1023.9 0.0
02/10:30pm 10.9 7.8 1.2 51 4.0 SW 7 13 4 7 1023.8 1023.8 0.0
02/10:00pm 11.4 7.9 1.1 49 4.3 SW 9 20 5 11 1023.3 1023.3 0.0
02/09:30pm 11.9 8.4 1.0 47 4.6 WSW 9 22 5 12 1022.9 1022.9 0.0
02/09:00pm 12.1 8.5 0.8 46 4.7 SW 9 20 5 11 1022.5 1022.5 0.0
02/08:30pm 12.5 9.0 1.2 46 4.8 SW 9 20 5 11 1022.3 1022.3 0.0
02/08:00pm 12.9 9.5 1.9 47 4.7 WSW 9 17 5 9 1021.7 1021.7 0.0
02/07:30pm 13.4 9.3 2.3 47 4.9 WSW 13 24 7 13 1021.3 1021.3 0.0
02/07:00pm 13.8 9.3 2.4 46 5.0 WSW 15 33 8 18 1020.5 1020.5 0.0
02/06:30pm 14.2 10.2 2.8 46 5.1 W 13 32 7 17 1020.0 1020.0 0.0
02/06:00pm 14.3 9.7 3.7 49 4.8 W 17 41 9 22 1019.8 1019.8 0.0
02/05:30pm 11.1 9.6 5.0 66 2.8 WNW 2 6 1 3 1019.4 1019.4 0.0
02/05:00pm 13.0 10.8 3.4 52 4.3 WNW 4 9 2 5 1018.6 1018.6 0.0
02/04:30pm 14.7 11.8 2.6 44 5.4 WNW 7 17 4 9 1018.2 1018.2 0.0
02/04:00pm 15.9 11.9 2.7 41 5.9 W 13 22 7 12 1018.1 1018.1 0.0
02/03:30pm 16.4 13.3 3.5 42 5.9 W 9 22 5 12 1018.1 1018.1 0.0
02/03:00pm 16.4 13.9 3.8 43 5.8 W 6 11 3 6 1018.0 1018.0 0.0
02/02:30pm 16.2 13.5 3.6 43 5.8 WNW 7 17 4 9 1018.0 1018.0 0.0
02/02:00pm 15.6 12.1 3.4 44 5.6 W 11 20 6 11 1018.1 1018.1 0.0
02/01:30pm 15.2 11.2 3.0 44 5.5 W 13 24 7 13 1018.2 1018.2 0.0
02/01:00pm 15.3 11.3 3.1 44 5.5 W 13 22 7 12 1018.5 1018.5 0.0
02/12:30pm 15.4 12.0 3.9 46 5.3 W 11 22 6 12 1018.8 1018.8 0.0
02/12:00pm 15.2 12.1 3.7 46 5.2 W 9 20 5 11 1019.2 1019.2 0.0
02/11:30am 14.2 10.7 3.7 49 4.8 WNW 11 19 6 10 1019.6 1019.6 0.0
02/11:00am 13.7 11.1 4.3 53 4.3 NW 7 13 4 7 1020.3 1020.3 0.0
02/10:30am 12.5 8.9 2.9 52 4.2 NW 11 20 6 11 1020.7 1020.7 0.0
02/10:00am 11.8 8.3 3.6 57 3.6 NW 11 20 6 11 1020.9 1020.9 0.0
02/09:30am 10.0 7.8 5.4 73 2.1 W 6 13 3 7 1021.1 1021.1 0.0
02/09:00am 8.3 7.8 7.7 96 0.3 CALM 0 4 0 2 1020.9 1020.9 0.2
02/08:30am 5.9 4.9 5.6 98 0.1 CALM 0 0 0 0 1021.3 1021.3 0.0
02/08:00am 3.2 1.3 2.8 97 0.2 NNW 2 6 1 3 1021.0 1021.0 0.0
02/07:30am 3.0 1.4 2.6 97 0.2 CALM 0 0 0 0 1021.1 1021.1 0.0
02/07:00am 3.1 1.5 2.5 96 0.2 CALM 0 0 0 0 1021.4 1021.4 0.0
02/06:30am 3.4 1.9 2.8 96 0.2 CALM 0 0 0 0 1021.0 1021.0 0.0
02/06:00am 3.9 2.5 3.5 97 0.2 CALM 0 0 0 0 1020.8 1020.8 0.0
02/05:30am 3.8 2.4 3.4 97 0.2 CALM 0 0 0 0 1020.6 1020.6 0.0
02/05:00am 4.2 2.8 3.6 96 0.2 CALM 0 0 0 0 1020.6 1020.6 0.0
02/04:30am 3.8 2.0 3.2 96 0.2 NNE 2 4 1 2 1020.5 1020.5 0.0
02/04:00am 4.1 2.7 3.5 96 0.2 CALM 0 0 0 0 1020.5 1020.5 0.0
02/03:30am 4.6 3.3 4.0 96 0.3 CALM 0 0 0 0 1020.8 1020.8 0.0
02/03:00am 5.1 3.9 4.5 96 0.3 CALM 0 2 0 1 1020.8 1020.8 0.0
02/02:30am 5.2 4.0 4.6 96 0.3 CALM 0 0 0 0 1020.9 1020.9 0.0
02/02:00am 5.8 4.7 5.2 96 0.3 CALM 0 0 0 0 1021.1 1021.1 0.0
02/01:30am 6.1 5.1 5.4 95 0.3 CALM 0 0 0 0 1021.2 1021.2 0.0
02/01:00am 6.7 5.4 6.1 96 0.3 E 2 4 1 2 1021.4 1021.4 0.0
02/12:30am 6.8 5.9 6.1 95 0.3 CALM 0 4 0 2 1021.7 1021.7 0.0
02/12:00am 7.6 6.9 6.9 95 0.3 CALM 0 0 0 0 1022.2 1022.2 0.0
 
Date/Time
EST
Temp
°C
App
Temp
°C
Dew
Point
Rel
Hum
%
Delta-T
°C
Wind Press
QNH
hPa
Press
MSL
hPa
Rain
since 9 am
mm
Dir
 
Spd
km/h
Gust
km/h
Spd
kts
Gust
kts
01/11:30pm 8.2 7.6 7.4 95 0.4 CALM 0 0 0 0 1022.5 1022.5 0.0
01/11:00pm 8.6 8.1 7.8 95 0.4 CALM 0 0 0 0 1022.5 1022.5 0.0
01/10:30pm 9.0 8.6 8.2 95 0.4 CALM 0 0 0 0 1022.3 1022.3 0.0
01/10:00pm 9.8 9.6 9.2 96 0.3 CALM 0 0 0 0 1022.7 1022.7 0.0
01/09:30pm 9.9 9.7 9.1 95 0.4 CALM 0 0 0 0 1023.0 1023.0 0.0
01/09:00pm 9.6 9.3 8.7 94 0.4 CALM 0 0 0 0 1023.4 1023.4 0.0
01/08:30pm 10.3 10.2 9.4 94 0.4 CALM 0 0 0 0 1023.5 1023.5 0.0
01/08:00pm 10.5 10.4 9.6 94 0.4 CALM 0 0 0 0 1023.4 1023.4 0.0
01/07:30pm 10.9 10.9 9.8 93 0.6 CALM 0 0 0 0 1023.2 1023.2 0.0
01/07:00pm 11.5 11.7 10.4 93 0.6 CALM 0 0 0 0 1023.3 1023.3 0.0
01/06:30pm 11.6 11.8 10.5 93 0.6 CALM 0 0 0 0 1023.1 1023.1 0.0
01/06:00pm 11.4 11.5 10.0 91 0.7 CALM 0 0 0 0 1022.6 1022.6 0.0
01/05:30pm 12.1 12.2 10.0 87 1.1 CALM 0 0 0 0 1022.5 1022.5 0.0
01/05:00pm 12.8 12.8 9.8 82 1.5 CALM 0 0 0 0 1022.3 1022.3 0.0
01/04:30pm 14.2 14.3 10.0 76 2.2 CALM 0 2 0 1 1022.3 1022.3 0.0
01/04:00pm 15.6 15.2 9.7 68 3.1 ENE 2 4 1 2 1022.3 1022.3 0.0
01/03:30pm 16.4 15.8 10.3 67 3.2 NE 4 6 2 3 1022.3 1022.3 0.0
01/03:00pm 16.2 15.6 10.3 68 3.1 ENE 4 7 2 4 1022.6 1022.6 0.0
01/02:30pm 15.2 14.6 10.4 73 2.5 ESE 4 7 2 4 1023.0 1023.0 0.0
01/02:00pm 15.4 14.8 10.4 72 2.6 ESE 4 11 2 6 1023.2 1023.2 0.0
01/01:30pm 16.4 16.2 10.3 67 3.2 N 2 4 1 2 1023.5 1023.5 0.0
01/01:00pm 16.4 16.5 10.0 66 3.3 CALM 0 0 0 0 1023.8 1023.8 0.0
01/12:30pm 16.3 16.1 10.6 69 3.0 S 2 6 1 3 1024.5 1024.5 0.0
01/12:00pm 14.8 14.1 10.2 74 2.4 SSW 4 7 2 4 1024.9 1024.9 0.0

Other Formats:

Comma delimited format used in spreadsheet applications
http://www.bom.gov.au/fwo/IDN60801/IDN60801.95767.axf

JavaScript Object Notation format (JSON) in row-major order
http://www.bom.gov.au/fwo/IDN60801/IDN60801.95767.json